sensor_id;sensor_type;location;lat;lon;timestamp;temperature;humidity
17039;DHT22;8636;55.750;13.202;2024-01-07T00:02:25;-10.50;99.90
17039;DHT22;8636;55.750;13.202;2024-01-07T00:04:53;-10.40;99.90
17039;DHT22;8636;55.750;13.202;2024-01-07T00:07:28;-10.40;99.90
17039;DHT22;8636;55.750;13.202;2024-01-07T00:09:56;-10.40;99.90
17039;DHT22;8636;55.750;13.202;2024-01-07T00:12:31;-10.50;99.90
17039;DHT22;8636;55.750;13.202;2024-01-07T00:15:00;-10.50;99.90
17039;DHT22;8636;55.750;13.202;2024-01-07T00:17:34;-10.60;99.90
17039;DHT22;8636;55.750;13.202;2024-01-07T00:20:03;-10.60;99.90
17039;DHT22;8636;55.750;13.202;2024-01-07T00:22:37;-10.60;99.90
17039;DHT22;8636;55.750;13.202;2024-01-07T00:25:05;-10.50;99.90
17039;DHT22;8636;55.750;13.202;2024-01-07T00:27:40;-10.50;99.90
17039;DHT22;8636;55.750;13.202;2024-01-07T00:30:11;-10.50;99.90
17039;DHT22;8636;55.750;13.202;2024-01-07T00:32:45;-10.60;99.90
17039;DHT22;8636;55.750;13.202;2024-01-07T00:35:13;-10.50;99.90
17039;DHT22;8636;55.750;13.202;2024-01-07T00:37:47;-10.50;99.90
17039;DHT22;8636;55.750;13.202;2024-01-07T00:40:15;-10.50;99.90
17039;DHT22;8636;55.750;13.202;2024-01-07T00:42:50;-10.50;99.90
17039;DHT22;8636;55.750;13.202;2024-01-07T00:45:19;-10.50;99.90
17039;DHT22;8636;55.750;13.202;2024-01-07T00:47:54;-10.40;99.90
17039;DHT22;8636;55.750;13.202;2024-01-07T00:50:22;-10.50;99.90
17039;DHT22;8636;55.750;13.202;2024-01-07T00:52:57;-10.50;99.90
17039;DHT22;8636;55.750;13.202;2024-01-07T00:55:25;-10.50;99.90
17039;DHT22;8636;55.750;13.202;2024-01-07T00:58:00;-10.50;99.90
17039;DHT22;8636;55.750;13.202;2024-01-07T01:00:30;-10.50;99.90
17039;DHT22;8636;55.750;13.202;2024-01-07T01:03:04;-10.60;99.90
17039;DHT22;8636;55.750;13.202;2024-01-07T01:05:32;-10.60;99.90
17039;DHT22;8636;55.750;13.202;2024-01-07T01:08:20;-10.60;99.90
17039;DHT22;8636;55.750;13.202;2024-01-07T01:10:48;-10.50;99.90
17039;DHT22;8636;55.750;13.202;2024-01-07T01:13:22;-10.50;99.90
17039;DHT22;8636;55.750;13.202;2024-01-07T01:15:51;-10.50;99.90
17039;DHT22;8636;55.750;13.202;2024-01-07T01:18:28;-10.60;99.90
17039;DHT22;8636;55.750;13.202;2024-01-07T01:20:56;-10.60;99.90
17039;DHT22;8636;55.750;13.202;2024-01-07T01:23:30;-10.60;99.90
17039;DHT22;8636;55.750;13.202;2024-01-07T01:25:58;-10.70;99.90
17039;DHT22;8636;55.750;13.202;2024-01-07T01:28:39;-10.70;99.90
17039;DHT22;8636;55.750;13.202;2024-01-07T01:31:12;-10.70;99.90
17039;DHT22;8636;55.750;13.202;2024-01-07T01:33:46;-10.80;99.90
17039;DHT22;8636;55.750;13.202;2024-01-07T01:36:15;-10.70;99.90
17039;DHT22;8636;55.750;13.202;2024-01-07T01:38:49;-10.70;99.90
17039;DHT22;8636;55.750;13.202;2024-01-07T01:41:17;-10.70;99.90
17039;DHT22;8636;55.750;13.202;2024-01-07T01:43:56;-10.70;99.90
17039;DHT22;8636;55.750;13.202;2024-01-07T01:46:26;-10.80;99.90
17039;DHT22;8636;55.750;13.202;2024-01-07T01:49:01;-10.80;99.90
17039;DHT22;8636;55.750;13.202;2024-01-07T01:51:30;-10.80;99.90
17039;DHT22;8636;55.750;13.202;2024-01-07T01:54:05;-10.70;99.90
17039;DHT22;8636;55.750;13.202;2024-01-07T01:56:33;-10.60;99.90
17039;DHT22;8636;55.750;13.202;2024-01-07T01:59:08;-10.60;99.90
17039;DHT22;8636;55.750;13.202;2024-01-07T02:01:38;-10.70;99.90
17039;DHT22;8636;55.750;13.202;2024-01-07T02:04:19;-10.70;99.90
17039;DHT22;8636;55.750;13.202;2024-01-07T02:07:00;-10.70;99.90
17039;DHT22;8636;55.750;13.202;2024-01-07T02:09:35;-10.80;99.90
17039;DHT22;8636;55.750;13.202;2024-01-07T02:12:04;-10.80;99.90
17039;DHT22;8636;55.750;13.202;2024-01-07T02:14:39;-10.70;99.90
17039;DHT22;8636;55.750;13.202;2024-01-07T02:17:08;-10.70;99.90
17039;DHT22;8636;55.750;13.202;2024-01-07T02:19:43;-10.70;99.90
17039;DHT22;8636;55.750;13.202;2024-01-07T02:22:12;-10.80;99.90
17039;DHT22;8636;55.750;13.202;2024-01-07T02:24:48;-10.70;99.90
17039;DHT22;8636;55.750;13.202;2024-01-07T02:27:16;-10.70;99.90
17039;DHT22;8636;55.750;13.202;2024-01-07T02:29:50;-10.70;99.90
17039;DHT22;8636;55.750;13.202;2024-01-07T02:32:18;-10.60;99.90
17039;DHT22;8636;55.750;13.202;2024-01-07T02:34:52;-10.70;99.90
17039;DHT22;8636;55.750;13.202;2024-01-07T02:37:20;-10.70;99.90
17039;DHT22;8636;55.750;13.202;2024-01-07T02:39:55;-10.70;99.90
17039;DHT22;8636;55.750;13.202;2024-01-07T02:42:27;-10.70;99.90
17039;DHT22;8636;55.750;13.202;2024-01-07T02:45:03;-10.70;99.90
17039;DHT22;8636;55.750;13.202;2024-01-07T02:47:31;-10.70;99.90
17039;DHT22;8636;55.750;13.202;2024-01-07T02:50:06;-10.90;99.90
17039;DHT22;8636;55.750;13.202;2024-01-07T02:52:34;-10.90;99.90
17039;DHT22;8636;55.750;13.202;2024-01-07T02:55:10;-10.90;99.90
17039;DHT22;8636;55.750;13.202;2024-01-07T02:57:38;-10.90;99.90
17039;DHT22;8636;55.750;13.202;2024-01-07T03:00:13;-11.00;99.90
17039;DHT22;8636;55.750;13.202;2024-01-07T03:02:41;-11.00;99.90
17039;DHT22;8636;55.750;13.202;2024-01-07T03:05:22;-11.00;99.90
17039;DHT22;8636;55.750;13.202;2024-01-07T03:07:59;-10.90;99.90
17039;DHT22;8636;55.750;13.202;2024-01-07T03:10:34;-10.90;99.90
17039;DHT22;8636;55.750;13.202;2024-01-07T03:13:04;-10.80;99.90
17039;DHT22;8636;55.750;13.202;2024-01-07T03:15:38;-10.80;99.90
17039;DHT22;8636;55.750;13.202;2024-01-07T03:18:06;-10.80;99.90
17039;DHT22;8636;55.750;13.202;2024-01-07T03:20:41;-10.80;99.90
17039;DHT22;8636;55.750;13.202;2024-01-07T03:23:09;-10.80;99.90
17039;DHT22;8636;55.750;13.202;2024-01-07T03:25:45;-10.80;99.90
17039;DHT22;8636;55.750;13.202;2024-01-07T03:28:13;-10.80;99.90
17039;DHT22;8636;55.750;13.202;2024-01-07T03:30:48;-10.80;99.90
17039;DHT22;8636;55.750;13.202;2024-01-07T03:33:16;-10.90;99.90
17039;DHT22;8636;55.750;13.202;2024-01-07T03:35:50;-10.90;99.90
17039;DHT22;8636;55.750;13.202;2024-01-07T03:38:18;-10.90;99.90
17039;DHT22;8636;55.750;13.202;2024-01-07T03:40:54;-10.90;99.90
17039;DHT22;8636;55.750;13.202;2024-01-07T03:43:22;-10.90;99.90
17039;DHT22;8636;55.750;13.202;2024-01-07T03:45:58;-10.90;99.90
17039;DHT22;8636;55.750;13.202;2024-01-07T03:48:26;-10.80;99.90
17039;DHT22;8636;55.750;13.202;2024-01-07T03:51:00;-10.80;99.90
17039;DHT22;8636;55.750;13.202;2024-01-07T03:53:28;-10.80;99.90
17039;DHT22;8636;55.750;13.202;2024-01-07T03:56:04;-10.80;99.90
17039;DHT22;8636;55.750;13.202;2024-01-07T03:58:32;-10.80;99.90
17039;DHT22;8636;55.750;13.202;2024-01-07T04:01:07;-10.90;99.90
17039;DHT22;8636;55.750;13.202;2024-01-07T04:03:35;-11.00;99.90
17039;DHT22;8636;55.750;13.202;2024-01-07T04:06:06;-11.00;99.90
17039;DHT22;8636;55.750;13.202;2024-01-07T04:08:40;-11.10;99.90
17039;DHT22;8636;55.750;13.202;2024-01-07T04:11:09;-11.10;99.90
17039;DHT22;8636;55.750;13.202;2024-01-07T04:13:44;-11.10;99.90
17039;DHT22;8636;55.750;13.202;2024-01-07T04:16:16;-11.00;99.90
17039;DHT22;8636;55.750;13.202;2024-01-07T04:18:51;-11.00;99.90
17039;DHT22;8636;55.750;13.202;2024-01-07T04:21:20;-11.00;99.90
17039;DHT22;8636;55.750;13.202;2024-01-07T04:23:55;-11.00;99.90
17039;DHT22;8636;55.750;13.202;2024-01-07T04:26:25;-11.00;99.90
17039;DHT22;8636;55.750;13.202;2024-01-07T04:28:59;-11.10;99.90
17039;DHT22;8636;55.750;13.202;2024-01-07T04:31:27;-11.10;99.90
17039;DHT22;8636;55.750;13.202;2024-01-07T04:34:01;-11.10;99.90
17039;DHT22;8636;55.750;13.202;2024-01-07T04:36:29;-11.10;99.90
17039;DHT22;8636;55.750;13.202;2024-01-07T04:39:04;-11.10;99.90
17039;DHT22;8636;55.750;13.202;2024-01-07T04:41:33;-11.00;99.90
17039;DHT22;8636;55.750;13.202;2024-01-07T04:44:09;-11.10;99.90
17039;DHT22;8636;55.750;13.202;2024-01-07T04:46:38;-11.10;99.90
17039;DHT22;8636;55.750;13.202;2024-01-07T04:49:13;-11.10;99.90
17039;DHT22;8636;55.750;13.202;2024-01-07T04:51:41;-11.20;99.90
17039;DHT22;8636;55.750;13.202;2024-01-07T04:54:15;-11.20;99.90
17039;DHT22;8636;55.750;13.202;2024-01-07T04:56:44;-11.10;99.90
17039;DHT22;8636;55.750;13.202;2024-01-07T04:59:19;-11.10;99.90
17039;DHT22;8636;55.750;13.202;2024-01-07T05:01:47;-11.10;99.90
17039;DHT22;8636;55.750;13.202;2024-01-07T05:04:21;-11.20;99.90
17039;DHT22;8636;55.750;13.202;2024-01-07T05:06:56;-11.10;99.90
17039;DHT22;8636;55.750;13.202;2024-01-07T05:09:32;-11.10;99.90
17039;DHT22;8636;55.750;13.202;2024-01-07T05:12:01;-11.10;99.90
17039;DHT22;8636;55.750;13.202;2024-01-07T05:14:36;-11.10;99.90
17039;DHT22;8636;55.750;13.202;2024-01-07T05:17:04;-11.20;99.90
17039;DHT22;8636;55.750;13.202;2024-01-07T05:19:40;-11.20;99.90
17039;DHT22;8636;55.750;13.202;2024-01-07T05:22:08;-11.20;99.90
17039;DHT22;8636;55.750;13.202;2024-01-07T05:24:42;-11.30;99.90
17039;DHT22;8636;55.750;13.202;2024-01-07T05:27:12;-11.30;99.90
17039;DHT22;8636;55.750;13.202;2024-01-07T05:29:46;-11.30;99.90
17039;DHT22;8636;55.750;13.202;2024-01-07T05:32:14;-11.20;99.90
17039;DHT22;8636;55.750;13.202;2024-01-07T05:34:48;-11.20;99.90
17039;DHT22;8636;55.750;13.202;2024-01-07T05:37:17;-11.20;99.90
17039;DHT22;8636;55.750;13.202;2024-01-07T05:39:51;-11.20;99.90
17039;DHT22;8636;55.750;13.202;2024-01-07T05:42:20;-11.20;99.90
17039;DHT22;8636;55.750;13.202;2024-01-07T05:44:55;-11.30;99.90
17039;DHT22;8636;55.750;13.202;2024-01-07T05:47:23;-11.20;99.90
17039;DHT22;8636;55.750;13.202;2024-01-07T05:49:57;-11.20;99.90
17039;DHT22;8636;55.750;13.202;2024-01-07T05:52:26;-11.20;99.90
17039;DHT22;8636;55.750;13.202;2024-01-07T05:55:01;-11.30;99.90
17039;DHT22;8636;55.750;13.202;2024-01-07T05:57:31;-11.40;99.90
17039;DHT22;8636;55.750;13.202;2024-01-07T06:00:06;-11.30;99.90
17039;DHT22;8636;55.750;13.202;2024-01-07T06:02:35;-11.40;99.90
17039;DHT22;8636;55.750;13.202;2024-01-07T06:05:09;-11.30;99.90
17039;DHT22;8636;55.750;13.202;2024-01-07T06:07:50;-11.40;99.90
17039;DHT22;8636;55.750;13.202;2024-01-07T06:10:25;-11.30;99.90
17039;DHT22;8636;55.750;13.202;2024-01-07T06:12:54;-11.40;99.90
17039;DHT22;8636;55.750;13.202;2024-01-07T06:15:28;-11.40;99.90
17039;DHT22;8636;55.750;13.202;2024-01-07T06:17:56;-11.50;99.90
17039;DHT22;8636;55.750;13.202;2024-01-07T06:20:30;-11.50;99.90
17039;DHT22;8636;55.750;13.202;2024-01-07T06:22:58;-11.50;99.90
17039;DHT22;8636;55.750;13.202;2024-01-07T06:25:32;-11.40;99.90
17039;DHT22;8636;55.750;13.202;2024-01-07T06:28:01;-11.50;99.90
17039;DHT22;8636;55.750;13.202;2024-01-07T06:30:36;-11.50;99.90
17039;DHT22;8636;55.750;13.202;2024-01-07T06:33:05;-11.40;99.90
17039;DHT22;8636;55.750;13.202;2024-01-07T06:35:39;-11.40;99.90
17039;DHT22;8636;55.750;13.202;2024-01-07T06:38:07;-11.40;99.90
17039;DHT22;8636;55.750;13.202;2024-01-07T06:40:41;-11.30;99.90
17039;DHT22;8636;55.750;13.202;2024-01-07T06:43:10;-11.30;99.90
17039;DHT22;8636;55.750;13.202;2024-01-07T06:45:45;-11.30;99.90
17039;DHT22;8636;55.750;13.202;2024-01-07T06:48:13;-11.20;99.90
17039;DHT22;8636;55.750;13.202;2024-01-07T06:50:47;-11.20;99.90
17039;DHT22;8636;55.750;13.202;2024-01-07T06:53:15;-11.00;99.90
17039;DHT22;8636;55.750;13.202;2024-01-07T06:55:49;-10.90;99.90
17039;DHT22;8636;55.750;13.202;2024-01-07T06:58:18;-10.80;99.90
17039;DHT22;8636;55.750;13.202;2024-01-07T07:00:53;-10.70;99.90
17039;DHT22;8636;55.750;13.202;2024-01-07T07:03:21;-10.60;99.90
17039;DHT22;8636;55.750;13.202;2024-01-07T07:05:55;-10.40;99.90
17039;DHT22;8636;55.750;13.202;2024-01-07T07:08:37;-10.30;99.90
17039;DHT22;8636;55.750;13.202;2024-01-07T07:11:11;-10.20;99.90
17039;DHT22;8636;55.750;13.202;2024-01-07T07:13:41;-10.00;99.90
17039;DHT22;8636;55.750;13.202;2024-01-07T07:16:22;-9.80;99.90
17039;DHT22;8636;55.750;13.202;2024-01-07T07:18:50;-9.70;99.90
17039;DHT22;8636;55.750;13.202;2024-01-07T07:21:25;-9.60;99.90
17039;DHT22;8636;55.750;13.202;2024-01-07T07:23:54;-9.50;99.90
17039;DHT22;8636;55.750;13.202;2024-01-07T07:26:28;-9.50;99.90
17039;DHT22;8636;55.750;13.202;2024-01-07T07:28:58;-9.30;99.90
17039;DHT22;8636;55.750;13.202;2024-01-07T07:31:33;-9.30;99.90
17039;DHT22;8636;55.750;13.202;2024-01-07T07:34:02;-9.20;99.90
17039;DHT22;8636;55.750;13.202;2024-01-07T07:36:36;-9.20;99.90
17039;DHT22;8636;55.750;13.202;2024-01-07T07:39:06;-9.10;99.90
17039;DHT22;8636;55.750;13.202;2024-01-07T07:41:41;-9.00;99.90
17039;DHT22;8636;55.750;13.202;2024-01-07T07:44:10;-9.00;99.90
17039;DHT22;8636;55.750;13.202;2024-01-07T07:46:45;-8.90;99.90
17039;DHT22;8636;55.750;13.202;2024-01-07T07:49:13;-8.80;99.90
17039;DHT22;8636;55.750;13.202;2024-01-07T07:51:43;-8.70;99.90
17039;DHT22;8636;55.750;13.202;2024-01-07T07:54:17;-8.70;99.90
17039;DHT22;8636;55.750;13.202;2024-01-07T07:56:45;-8.60;99.90
17039;DHT22;8636;55.750;13.202;2024-01-07T07:59:22;-8.60;99.90
17039;DHT22;8636;55.750;13.202;2024-01-07T08:01:50;-8.60;99.90
17039;DHT22;8636;55.750;13.202;2024-01-07T08:04:24;-8.50;99.90
17039;DHT22;8636;55.750;13.202;2024-01-07T08:06:53;-8.50;99.90
17039;DHT22;8636;55.750;13.202;2024-01-07T08:09:29;-8.40;99.90
17039;DHT22;8636;55.750;13.202;2024-01-07T08:11:57;-8.30;99.90
17039;DHT22;8636;55.750;13.202;2024-01-07T08:14:33;-8.30;99.90
17039;DHT22;8636;55.750;13.202;2024-01-07T08:17:01;-8.30;99.90
17039;DHT22;8636;55.750;13.202;2024-01-07T08:19:36;-8.20;99.90
17039;DHT22;8636;55.750;13.202;2024-01-07T08:22:05;-8.20;99.90
17039;DHT22;8636;55.750;13.202;2024-01-07T08:24:39;-8.10;99.90
17039;DHT22;8636;55.750;13.202;2024-01-07T08:27:08;-8.10;99.90
17039;DHT22;8636;55.750;13.202;2024-01-07T08:29:44;-8.00;99.90
17039;DHT22;8636;55.750;13.202;2024-01-07T08:32:12;-8.00;99.90
17039;DHT22;8636;55.750;13.202;2024-01-07T08:34:46;-7.90;99.90
17039;DHT22;8636;55.750;13.202;2024-01-07T08:37:14;-7.80;99.90
17039;DHT22;8636;55.750;13.202;2024-01-07T08:39:48;-7.70;99.90
17039;DHT22;8636;55.750;13.202;2024-01-07T08:42:16;-7.70;99.90
17039;DHT22;8636;55.750;13.202;2024-01-07T08:44:56;-7.60;99.90
17039;DHT22;8636;55.750;13.202;2024-01-07T08:47:27;-7.60;99.90
17039;DHT22;8636;55.750;13.202;2024-01-07T08:50:08;-7.60;99.90
17039;DHT22;8636;55.750;13.202;2024-01-07T08:52:36;-7.70;99.90
17039;DHT22;8636;55.750;13.202;2024-01-07T08:55:10;-7.70;99.90
17039;DHT22;8636;55.750;13.202;2024-01-07T08:57:38;-7.80;99.90
17039;DHT22;8636;55.750;13.202;2024-01-07T09:00:16;-7.80;99.90
17039;DHT22;8636;55.750;13.202;2024-01-07T09:02:44;-7.90;99.90
17039;DHT22;8636;55.750;13.202;2024-01-07T09:05:18;-8.00;99.90
17039;DHT22;8636;55.750;13.202;2024-01-07T09:07:59;-8.00;99.90
17039;DHT22;8636;55.750;13.202;2024-01-07T09:10:34;-8.10;99.90
17039;DHT22;8636;55.750;13.202;2024-01-07T09:13:03;-8.10;99.90
17039;DHT22;8636;55.750;13.202;2024-01-07T09:15:39;-8.10;99.90
17039;DHT22;8636;55.750;13.202;2024-01-07T09:18:07;-8.10;99.90
17039;DHT22;8636;55.750;13.202;2024-01-07T09:20:41;-8.10;99.90
17039;DHT22;8636;55.750;13.202;2024-01-07T09:23:09;-8.10;99.90
17039;DHT22;8636;55.750;13.202;2024-01-07T09:25:43;-8.10;99.90
17039;DHT22;8636;55.750;13.202;2024-01-07T09:28:13;-8.00;99.90
17039;DHT22;8636;55.750;13.202;2024-01-07T09:30:49;-8.00;99.90
17039;DHT22;8636;55.750;13.202;2024-01-07T09:33:17;-7.90;99.90
17039;DHT22;8636;55.750;13.202;2024-01-07T09:35:52;-7.90;99.90
17039;DHT22;8636;55.750;13.202;2024-01-07T09:38:31;-7.80;99.90
17039;DHT22;8636;55.750;13.202;2024-01-07T09:41:05;-7.80;99.90
17039;DHT22;8636;55.750;13.202;2024-01-07T09:43:33;-7.70;99.90
17039;DHT22;8636;55.750;13.202;2024-01-07T09:46:10;-7.70;99.90
17039;DHT22;8636;55.750;13.202;2024-01-07T09:48:38;-7.60;99.90
17039;DHT22;8636;55.750;13.202;2024-01-07T09:51:13;-7.60;99.90
17039;DHT22;8636;55.750;13.202;2024-01-07T09:53:41;-7.50;99.90
17039;DHT22;8636;55.750;13.202;2024-01-07T09:56:20;-7.50;99.90
17039;DHT22;8636;55.750;13.202;2024-01-07T09:58:50;-7.50;99.90
17039;DHT22;8636;55.750;13.202;2024-01-07T10:01:26;-7.40;99.90
17039;DHT22;8636;55.750;13.202;2024-01-07T10:03:54;-7.40;99.90
17039;DHT22;8636;55.750;13.202;2024-01-07T10:06:29;-7.30;99.90
17039;DHT22;8636;55.750;13.202;2024-01-07T10:09:06;-7.30;99.90
17039;DHT22;8636;55.750;13.202;2024-01-07T10:11:40;-7.20;99.90
17039;DHT22;8636;55.750;13.202;2024-01-07T10:14:08;-7.10;99.90
17039;DHT22;8636;55.750;13.202;2024-01-07T10:16:45;-7.00;99.90
17039;DHT22;8636;55.750;13.202;2024-01-07T10:19:19;-6.90;99.90
17039;DHT22;8636;55.750;13.202;2024-01-07T10:22:02;-6.80;99.90
17039;DHT22;8636;55.750;13.202;2024-01-07T10:24:35;-6.70;99.90
17039;DHT22;8636;55.750;13.202;2024-01-07T10:27:11;-6.60;99.90
17039;DHT22;8636;55.750;13.202;2024-01-07T10:29:40;-6.50;99.90
17039;DHT22;8636;55.750;13.202;2024-01-07T10:32:17;-6.50;99.90
17039;DHT22;8636;55.750;13.202;2024-01-07T10:34:47;-6.40;99.90
17039;DHT22;8636;55.750;13.202;2024-01-07T10:37:22;-6.30;99.90
17039;DHT22;8636;55.750;13.202;2024-01-07T10:39:50;-6.20;99.90
17039;DHT22;8636;55.750;13.202;2024-01-07T10:42:26;-6.10;99.90
17039;DHT22;8636;55.750;13.202;2024-01-07T10:44:54;-6.10;99.90
17039;DHT22;8636;55.750;13.202;2024-01-07T10:47:31;-6.00;99.90
17039;DHT22;8636;55.750;13.202;2024-01-07T10:49:59;-5.90;99.90
17039;DHT22;8636;55.750;13.202;2024-01-07T10:52:36;-5.90;99.90
17039;DHT22;8636;55.750;13.202;2024-01-07T10:55:09;-5.90;99.90
17039;DHT22;8636;55.750;13.202;2024-01-07T10:57:46;-5.80;99.90
17039;DHT22;8636;55.750;13.202;2024-01-07T11:00:17;-5.80;99.90
17039;DHT22;8636;55.750;13.202;2024-01-07T11:03:02;-5.80;99.90
17039;DHT22;8636;55.750;13.202;2024-01-07T11:05:37;-5.70;99.90
17039;DHT22;8636;55.750;13.202;2024-01-07T11:08:18;-5.60;99.90
17039;DHT22;8636;55.750;13.202;2024-01-07T11:10:48;-5.60;99.90
17039;DHT22;8636;55.750;13.202;2024-01-07T11:13:34;-5.60;99.90
17039;DHT22;8636;55.750;13.202;2024-01-07T11:16:10;-5.60;99.90
17039;DHT22;8636;55.750;13.202;2024-01-07T11:18:45;-5.50;99.90
17039;DHT22;8636;55.750;13.202;2024-01-07T11:21:23;-5.50;99.90
17039;DHT22;8636;55.750;13.202;2024-01-07T11:23:52;-5.40;99.90
17039;DHT22;8636;55.750;13.202;2024-01-07T11:26:28;-5.30;99.90
17039;DHT22;8636;55.750;13.202;2024-01-07T11:28:57;-5.20;99.90
17039;DHT22;8636;55.750;13.202;2024-01-07T11:31:45;-5.10;99.90
17039;DHT22;8636;55.750;13.202;2024-01-07T11:34:41;-5.00;99.90
17039;DHT22;8636;55.750;13.202;2024-01-07T11:37:16;-4.80;99.90
17039;DHT22;8636;55.750;13.202;2024-01-07T11:39:45;-4.80;99.90
17039;DHT22;8636;55.750;13.202;2024-01-07T11:42:19;-4.80;99.90
17039;DHT22;8636;55.750;13.202;2024-01-07T11:44:48;-4.80;99.90
17039;DHT22;8636;55.750;13.202;2024-01-07T11:47:23;-4.80;99.90
17039;DHT22;8636;55.750;13.202;2024-01-07T11:49:54;-4.80;99.90
17039;DHT22;8636;55.750;13.202;2024-01-07T11:52:29;-4.80;99.90
17039;DHT22;8636;55.750;13.202;2024-01-07T11:54:58;-4.80;99.90
17039;DHT22;8636;55.750;13.202;2024-01-07T11:57:32;-4.80;99.90
17039;DHT22;8636;55.750;13.202;2024-01-07T12:00:01;-4.80;99.90
17039;DHT22;8636;55.750;13.202;2024-01-07T12:02:36;-4.90;99.90
17039;DHT22;8636;55.750;13.202;2024-01-07T12:05:06;-4.90;99.90
17039;DHT22;8636;55.750;13.202;2024-01-07T12:07:55;-4.80;99.90
17039;DHT22;8636;55.750;13.202;2024-01-07T12:10:23;-4.70;99.90
17039;DHT22;8636;55.750;13.202;2024-01-07T12:12:57;-4.70;99.90
17039;DHT22;8636;55.750;13.202;2024-01-07T12:15:26;-4.60;99.90
17039;DHT22;8636;55.750;13.202;2024-01-07T12:18:01;-4.50;99.90
17039;DHT22;8636;55.750;13.202;2024-01-07T12:20:31;-4.50;99.90
17039;DHT22;8636;55.750;13.202;2024-01-07T12:23:06;-4.50;99.90
17039;DHT22;8636;55.750;13.202;2024-01-07T12:25:34;-4.50;99.90
17039;DHT22;8636;55.750;13.202;2024-01-07T12:28:09;-4.50;99.90
17039;DHT22;8636;55.750;13.202;2024-01-07T12:30:37;-4.40;99.90
17039;DHT22;8636;55.750;13.202;2024-01-07T12:33:16;-4.50;99.90
17039;DHT22;8636;55.750;13.202;2024-01-07T12:35:47;-4.40;99.90
17039;DHT22;8636;55.750;13.202;2024-01-07T12:38:24;-4.40;99.90
17039;DHT22;8636;55.750;13.202;2024-01-07T12:40:52;-4.30;99.90
17039;DHT22;8636;55.750;13.202;2024-01-07T12:43:27;-4.30;99.90
17039;DHT22;8636;55.750;13.202;2024-01-07T12:45:55;-4.30;99.90
17039;DHT22;8636;55.750;13.202;2024-01-07T12:48:29;-4.20;99.90
17039;DHT22;8636;55.750;13.202;2024-01-07T12:51:00;-4.20;99.90
17039;DHT22;8636;55.750;13.202;2024-01-07T12:53:34;-4.20;99.90
17039;DHT22;8636;55.750;13.202;2024-01-07T12:56:03;-4.20;99.90
17039;DHT22;8636;55.750;13.202;2024-01-07T12:58:37;-4.20;99.90
17039;DHT22;8636;55.750;13.202;2024-01-07T13:01:05;-4.20;99.90
17039;DHT22;8636;55.750;13.202;2024-01-07T13:03:40;-4.10;99.90
17039;DHT22;8636;55.750;13.202;2024-01-07T13:06:09;-4.10;99.90
17039;DHT22;8636;55.750;13.202;2024-01-07T13:08:57;-4.10;99.90
17039;DHT22;8636;55.750;13.202;2024-01-07T13:11:29;-4.10;99.90
17039;DHT22;8636;55.750;13.202;2024-01-07T13:14:03;-4.20;99.90
17039;DHT22;8636;55.750;13.202;2024-01-07T13:16:32;-4.20;99.90
17039;DHT22;8636;55.750;13.202;2024-01-07T13:19:06;-4.20;99.90
17039;DHT22;8636;55.750;13.202;2024-01-07T13:21:39;-4.20;99.90
17039;DHT22;8636;55.750;13.202;2024-01-07T13:24:13;-4.20;99.90
17039;DHT22;8636;55.750;13.202;2024-01-07T13:26:41;-4.10;99.90
17039;DHT22;8636;55.750;13.202;2024-01-07T13:29:15;-4.20;99.90
17039;DHT22;8636;55.750;13.202;2024-01-07T13:31:43;-4.20;99.90
17039;DHT22;8636;55.750;13.202;2024-01-07T13:34:17;-4.10;99.90
17039;DHT22;8636;55.750;13.202;2024-01-07T13:36:47;-4.10;99.90
17039;DHT22;8636;55.750;13.202;2024-01-07T13:39:22;-4.10;99.90
17039;DHT22;8636;55.750;13.202;2024-01-07T13:41:52;-4.10;99.90
17039;DHT22;8636;55.750;13.202;2024-01-07T13:44:27;-4.10;99.90
17039;DHT22;8636;55.750;13.202;2024-01-07T13:46:55;-4.10;99.90
17039;DHT22;8636;55.750;13.202;2024-01-07T13:49:29;-4.10;99.90
17039;DHT22;8636;55.750;13.202;2024-01-07T13:51:59;-4.10;99.90
17039;DHT22;8636;55.750;13.202;2024-01-07T13:54:33;-4.00;99.90
17039;DHT22;8636;55.750;13.202;2024-01-07T13:57:02;-4.00;99.90
17039;DHT22;8636;55.750;13.202;2024-01-07T13:59:36;-4.00;99.90
17039;DHT22;8636;55.750;13.202;2024-01-07T14:02:06;-4.00;99.90
17039;DHT22;8636;55.750;13.202;2024-01-07T14:04:41;-4.00;99.90
17039;DHT22;8636;55.750;13.202;2024-01-07T14:07:10;-4.00;99.90
17039;DHT22;8636;55.750;13.202;2024-01-07T14:09:51;-4.00;99.90
17039;DHT22;8636;55.750;13.202;2024-01-07T14:12:19;-4.00;99.90
17039;DHT22;8636;55.750;13.202;2024-01-07T14:14:54;-4.10;99.90
17039;DHT22;8636;55.750;13.202;2024-01-07T14:17:22;-4.10;99.90
17039;DHT22;8636;55.750;13.202;2024-01-07T14:19:56;-4.10;99.90
17039;DHT22;8636;55.750;13.202;2024-01-07T14:22:26;-4.10;99.90
17039;DHT22;8636;55.750;13.202;2024-01-07T14:25:03;-4.10;99.90
17039;DHT22;8636;55.750;13.202;2024-01-07T14:27:31;-4.10;99.90
17039;DHT22;8636;55.750;13.202;2024-01-07T14:29:59;-4.10;99.90
17039;DHT22;8636;55.750;13.202;2024-01-07T14:32:33;-4.10;99.90
17039;DHT22;8636;55.750;13.202;2024-01-07T14:35:03;-4.10;99.90
17039;DHT22;8636;55.750;13.202;2024-01-07T14:37:40;-4.20;99.90
17039;DHT22;8636;55.750;13.202;2024-01-07T14:40:08;-4.20;99.90
17039;DHT22;8636;55.750;13.202;2024-01-07T14:42:43;-4.30;99.90
17039;DHT22;8636;55.750;13.202;2024-01-07T14:45:11;-4.30;99.90
17039;DHT22;8636;55.750;13.202;2024-01-07T14:47:45;-4.30;99.90
17039;DHT22;8636;55.750;13.202;2024-01-07T14:50:13;-4.40;99.90
17039;DHT22;8636;55.750;13.202;2024-01-07T14:53:00;-4.50;99.90
17039;DHT22;8636;55.750;13.202;2024-01-07T14:55:28;-4.50;99.90
17039;DHT22;8636;55.750;13.202;2024-01-07T14:58:03;-4.60;99.90
17039;DHT22;8636;55.750;13.202;2024-01-07T15:00:31;-4.70;99.90
17039;DHT22;8636;55.750;13.202;2024-01-07T15:03:05;-4.70;99.90
17039;DHT22;8636;55.750;13.202;2024-01-07T15:05:33;-4.80;99.90
17039;DHT22;8636;55.750;13.202;2024-01-07T15:08:16;-4.90;99.90
17039;DHT22;8636;55.750;13.202;2024-01-07T15:10:45;-5.00;99.90
17039;DHT22;8636;55.750;13.202;2024-01-07T15:13:19;-5.00;99.90
17039;DHT22;8636;55.750;13.202;2024-01-07T15:15:50;-5.10;99.90
17039;DHT22;8636;55.750;13.202;2024-01-07T15:18:24;-5.20;99.90
17039;DHT22;8636;55.750;13.202;2024-01-07T15:20:52;-5.30;99.90
17039;DHT22;8636;55.750;13.202;2024-01-07T15:23:28;-5.40;99.90
17039;DHT22;8636;55.750;13.202;2024-01-07T15:25:56;-5.50;99.90
17039;DHT22;8636;55.750;13.202;2024-01-07T15:28:30;-5.50;99.90
17039;DHT22;8636;55.750;13.202;2024-01-07T15:30:59;-5.60;99.90
17039;DHT22;8636;55.750;13.202;2024-01-07T15:33:33;-5.90;99.90
17039;DHT22;8636;55.750;13.202;2024-01-07T15:36:02;-6.00;99.90
17039;DHT22;8636;55.750;13.202;2024-01-07T15:38:38;-6.10;99.90
17039;DHT22;8636;55.750;13.202;2024-01-07T15:41:06;-6.10;99.90
17039;DHT22;8636;55.750;13.202;2024-01-07T15:43:40;-6.20;99.90
17039;DHT22;8636;55.750;13.202;2024-01-07T15:46:09;-6.30;99.90
17039;DHT22;8636;55.750;13.202;2024-01-07T15:48:43;-6.40;99.90
17039;DHT22;8636;55.750;13.202;2024-01-07T15:51:11;-6.40;99.90
17039;DHT22;8636;55.750;13.202;2024-01-07T15:53:47;-6.30;99.90
17039;DHT22;8636;55.750;13.202;2024-01-07T15:56:15;-6.30;99.90
17039;DHT22;8636;55.750;13.202;2024-01-07T15:58:51;-6.20;99.90